Hesperia, Michigan
Current Conditions -  °F | °C
As of 2:55 PM on Sunday 21 Dec 2014 (Local Time) from KFFX Reporting Station
Overcast Overcast  
Wind Chill: 28°   Ceiling: 3400
Heat Index: 33°   Visibility: 7mi
Dew Point: 28°   Wind: 5mph
Humidity: 83%   Direction: 150°SSE
Pressure: 30.14"   Gusts: NA
Location:  43.57°N, 86.04°W
Report Text: KFFX 211955Z AUTO 15004KT 7SM SCT021 BKN034 OVC041 00/M02 A3014 RMK AO2 T00031023
Loading
Personal Weather Stations






























Interactive Weather Map New forecast layout! Learn more

10-Day Weather Forecast

Advertisements
Track Severe Weather on mobile